Time;durP1;ratioP1;P1;durP2;ratioP2;P2;SDS_P1;SDS_P2;PMS_P1;PMS_P2;Temp;Humidity;BMP_temperature;BMP_pressure;BME280_temperature;BME280_humidity;BME280_pressure;Samples;Min_cycle;Max_cycle;Signal;HPM_P1;HPM_P2
2021/06/24 00:01:01;;;;;;;;;;;16.10;99.90;;;;;;5071376;28;19958;-70
2021/06/24 00:03:27;;;;;;;;;;;16.10;99.90;;;;;;5071174;28;19908;-70
2021/06/24 00:05:53;;;;;;;;;;;16.20;99.90;;;;;;5070488;28;19919;-69
2021/06/24 00:08:19;;;;;;;;;;;16.20;99.90;;;;;;5071229;28;19916;-70
2021/06/24 00:10:45;;;;;;;;;;;16.20;99.90;;;;;;5071229;28;19950;-70
2021/06/24 00:13:10;;;;;;;;;;;16.20;99.90;;;;;;5067716;28;19999;-70
2021/06/24 00:15:36;;;;;;;;;;;16.20;99.90;;;;;;5069937;28;20331;-70
2021/06/24 00:18:02;;;;;;;;;;;16.20;99.90;;;;;;5070940;28;20428;-70
2021/06/24 00:20:28;;;;;;;;;;;16.20;99.90;;;;;;5071317;28;19947;-70
2021/06/24 00:22:53;;;;;;;;;;;16.20;99.90;;;;;;5071173;28;20285;-70
2021/06/24 00:25:19;;;;;;;;;;;16.20;99.90;;;;;;5070973;28;19909;-70
2021/06/24 00:27:44;;;;;;;;;;;16.20;99.90;;;;;;5069958;28;19912;-70
2021/06/24 00:30:10;;;;;;;;;;;16.30;99.90;;;;;;5070992;28;19908;-70
2021/06/24 00:32:36;;;;;;;;;;;16.20;99.90;;;;;;5071138;28;19908;-70
2021/06/24 00:35:02;;;;;;;;;;;16.20;99.90;;;;;;5070889;28;19908;-69
2021/06/24 00:37:28;;;;;;;;;;;16.20;99.90;;;;;;5069035;28;19955;-70
2021/06/24 00:39:54;;;;;;;;;;;16.20;99.90;;;;;;5070957;28;19908;-70
2021/06/24 00:42:20;;;;;;;;;;;16.10;99.90;;;;;;5070677;28;19917;-70
2021/06/24 00:44:46;;;;;;;;;;;16.10;99.90;;;;;;5066922;28;19909;-70
2021/06/24 00:47:11;;;;;;;;;;;16.10;99.90;;;;;;5070096;28;19905;-70
2021/06/24 00:49:37;;;;;;;;;;;16.10;99.90;;;;;;5071089;28;19916;-70
2021/06/24 00:52:03;;;;;;;;;;;16.10;99.90;;;;;;5070921;28;19908;-70
2021/06/24 00:54:28;;;;;;;;;;;16.10;99.90;;;;;;5070847;28;19934;-70
2021/06/24 00:56:54;;;;;;;;;;;16.10;99.90;;;;;;5069551;28;20388;-69
2021/06/24 00:59:21;;;;;;;;;;;16.10;99.90;;;;;;5070717;28;19916;-70
2021/06/24 01:01:46;;;;;;;;;;;16.10;99.90;;;;;;5069507;28;19936;-70
2021/06/24 01:04:12;;;;;;;;;;;16.20;99.90;;;;;;5070835;28;20374;-70
2021/06/24 01:06:37;;;;;;;;;;;16.20;99.90;;;;;;5068703;28;19974;-70
2021/06/24 01:09:03;;;;;;;;;;;16.20;99.90;;;;;;5070616;28;19999;-70
2021/06/24 01:11:28;;;;;;;;;;;16.10;99.90;;;;;;5071074;28;19908;-70
2021/06/24 01:13:54;;;;;;;;;;;16.10;99.90;;;;;;5066372;28;20427;-69
2021/06/24 01:16:20;;;;;;;;;;;16.20;99.90;;;;;;5068150;28;20451;-70
2021/06/24 01:18:45;;;;;;;;;;;16.20;99.90;;;;;;5074617;28;19909;-70
2021/06/24 01:21:11;;;;;;;;;;;16.10;99.90;;;;;;5074575;28;19909;-70
2021/06/24 01:23:38;;;;;;;;;;;16.10;99.90;;;;;;5074429;28;19912;-70
2021/06/24 01:26:04;;;;;;;;;;;16.10;99.90;;;;;;5072191;28;19919;-70
2021/06/24 01:28:29;;;;;;;;;;;16.10;99.90;;;;;;5072921;28;19913;-70
2021/06/24 01:30:55;;;;;;;;;;;16.10;99.90;;;;;;5074357;28;19995;-70
2021/06/24 01:33:23;;;;;;;;;;;16.10;99.90;;;;;;5074339;28;19909;-70
2021/06/24 01:35:49;;;;;;;;;;;16.10;99.90;;;;;;5073338;28;20046;-70
2021/06/24 01:38:14;;;;;;;;;;;16.00;99.90;;;;;;5074147;28;20424;-70
2021/06/24 01:40:40;;;;;;;;;;;16.00;99.90;;;;;;5074089;28;20254;-71
2021/06/24 01:43:06;;;;;;;;;;;16.00;99.90;;;;;;5071175;28;19928;-70
2021/06/24 01:45:32;;;;;;;;;;;16.00;99.90;;;;;;5081853;28;19908;-70
2021/06/24 01:47:57;;;;;;;;;;;15.90;99.90;;;;;;5092214;28;19916;-70
2021/06/24 01:50:23;;;;;;;;;;;15.90;99.90;;;;;;5094281;28;19908;-70
2021/06/24 01:52:49;;;;;;;;;;;15.90;99.90;;;;;;5094130;28;19995;-70
2021/06/24 01:55:15;;;;;;;;;;;15.90;99.90;;;;;;5094049;28;20285;-71
2021/06/24 01:57:40;;;;;;;;;;;15.90;99.90;;;;;;5092851;28;19915;-70
2021/06/24 02:00:07;;;;;;;;;;;15.90;99.90;;;;;;5093906;28;19909;-71
2021/06/24 02:02:33;;;;;;;;;;;15.90;99.90;;;;;;5093876;28;19908;-70
2021/06/24 02:04:58;;;;;;;;;;;15.90;99.90;;;;;;5093895;28;19953;-70
2021/06/24 02:07:24;;;;;;;;;;;15.90;99.90;;;;;;5092909;28;19961;-71
2021/06/24 02:09:49;;;;;;;;;;;15.90;99.90;;;;;;5093621;28;19912;-71
2021/06/24 02:12:15;;;;;;;;;;;15.80;99.90;;;;;;5093368;28;20265;-70
2021/06/24 02:14:41;;;;;;;;;;;15.80;99.90;;;;;;5073894;28;20006;-71
2021/06/24 02:17:06;;;;;;;;;;;15.80;99.90;;;;;;5072401;28;19909;-71
2021/06/24 02:19:32;;;;;;;;;;;15.80;99.90;;;;;;5073311;28;19955;-70
2021/06/24 02:21:57;;;;;;;;;;;15.80;99.90;;;;;;5073038;28;19916;-71
2021/06/24 02:24:23;;;;;;;;;;;15.80;99.90;;;;;;5073549;28;19962;-70
2021/06/24 02:26:48;;;;;;;;;;;15.80;99.90;;;;;;5071816;28;20007;-70
2021/06/24 02:29:14;;;;;;;;;;;15.80;99.90;;;;;;5072751;28;19965;-70
2021/06/24 02:31:40;;;;;;;;;;;15.80;99.90;;;;;;5073189;28;19916;-70
2021/06/24 02:34:06;;;;;;;;;;;15.90;99.90;;;;;;5072959;28;19915;-70
2021/06/24 02:36:32;;;;;;;;;;;15.90;99.90;;;;;;5072099;28;19985;-70
2021/06/24 02:38:58;;;;;;;;;;;15.90;99.90;;;;;;5072750;28;19940;-70
2021/06/24 02:41:23;;;;;;;;;;;15.80;99.90;;;;;;5072745;28;19916;-70
2021/06/24 02:43:49;;;;;;;;;;;15.70;99.90;;;;;;5068787;28;19923;-70
2021/06/24 02:46:14;;;;;;;;;;;15.80;99.90;;;;;;5071501;28;19909;-69
2021/06/24 02:48:40;;;;;;;;;;;15.80;99.90;;;;;;5072284;28;19913;-70
2021/06/24 02:51:05;;;;;;;;;;;15.80;99.90;;;;;;5072707;28;20297;-70
2021/06/24 02:53:31;;;;;;;;;;;15.80;99.90;;;;;;5072660;28;19908;-70
2021/06/24 02:55:56;;;;;;;;;;;15.80;99.90;;;;;;5071626;28;19916;-70
2021/06/24 02:58:22;;;;;;;;;;;15.80;99.90;;;;;;5072236;28;19982;-71
2021/06/24 03:00:47;;;;;;;;;;;15.80;99.90;;;;;;5072472;28;19912;-70
2021/06/24 03:03:13;;;;;;;;;;;15.90;99.90;;;;;;5071127;28;20332;-70
2021/06/24 03:05:38;;;;;;;;;;;15.90;99.90;;;;;;5070420;28;19915;-70
2021/06/24 03:08:04;;;;;;;;;;;15.90;99.90;;;;;;5072218;28;19914;-71
2021/06/24 03:10:30;;;;;;;;;;;15.90;99.90;;;;;;5071889;28;19995;-70
2021/06/24 03:12:56;;;;;;;;;;;15.90;99.90;;;;;;5070615;28;19912;-70
2021/06/24 03:15:21;;;;;;;;;;;15.90;99.90;;;;;;5069283;28;19962;-70
2021/06/24 03:17:47;;;;;;;;;;;15.90;99.90;;;;;;5071245;28;20455;-70
2021/06/24 03:20:13;;;;;;;;;;;15.90;99.90;;;;;;5072082;28;19955;-70
2021/06/24 03:22:39;;;;;;;;;;;15.90;99.90;;;;;;5071930;28;19919;-71
2021/06/24 03:25:05;;;;;;;;;;;15.80;99.90;;;;;;5071778;28;19913;-70
2021/06/24 03:27:31;;;;;;;;;;;15.90;99.90;;;;;;5071102;28;19954;-70
2021/06/24 03:29:56;;;;;;;;;;;15.90;99.90;;;;;;5072411;28;19908;-69
2021/06/24 03:32:21;;;;;;;;;;;15.90;99.90;;;;;;5072440;28;19908;-70
2021/06/24 03:34:47;;;;;;;;;;;15.90;99.90;;;;;;5071783;28;20281;-70
2021/06/24 03:37:12;;;;;;;;;;;15.90;99.90;;;;;;5069744;28;19916;-70
2021/06/24 03:39:39;;;;;;;;;;;15.90;99.90;;;;;;5070803;28;19909;-70
2021/06/24 03:42:05;;;;;;;;;;;15.90;99.90;;;;;;5071658;28;19916;-70
2021/06/24 03:44:30;;;;;;;;;;;15.90;99.90;;;;;;5067393;28;19909;-70
2021/06/24 03:46:56;;;;;;;;;;;15.90;99.90;;;;;;5070584;28;19961;-69
2021/06/24 03:49:21;;;;;;;;;;;15.90;99.90;;;;;;5071354;28;19913;-70
2021/06/24 03:51:47;;;;;;;;;;;15.90;99.90;;;;;;5071528;28;19944;-70
2021/06/24 03:54:12;;;;;;;;;;;15.90;99.90;;;;;;5071303;28;20387;-70
2021/06/24 03:56:38;;;;;;;;;;;16.00;99.90;;;;;;5070534;28;19909;-69
2021/06/24 03:59:04;;;;;;;;;;;16.00;99.90;;;;;;5071009;28;19908;-70
2021/06/24 04:01:30;;;;;;;;;;;16.00;99.90;;;;;;5071453;28;19916;-70
2021/06/24 04:03:56;;;;;;;;;;;15.90;99.90;;;;;;5071245;28;20308;-69
2021/06/24 04:06:22;;;;;;;;;;;16.00;99.90;;;;;;5070382;28;20003;-70
2021/06/24 04:08:47;;;;;;;;;;;16.00;99.90;;;;;;5069689;28;19916;-70
2021/06/24 04:11:13;;;;;;;;;;;16.10;99.90;;;;;;5069839;28;19908;-69
2021/06/24 04:13:38;;;;;;;;;;;16.00;99.90;;;;;;5067115;28;19920;-69
2021/06/24 04:16:06;;;;;;;;;;;16.00;99.90;;;;;;5070213;28;20430;-70
2021/06/24 04:18:31;;;;;;;;;;;16.00;99.90;;;;;;5071344;28;19908;-70
2021/06/24 04:20:57;;;;;;;;;;;16.00;99.90;;;;;;5071350;28;19912;-70
2021/06/24 04:23:22;;;;;;;;;;;16.00;99.90;;;;;;5071204;28;19913;-70
2021/06/24 04:25:48;;;;;;;;;;;16.00;99.90;;;;;;5070585;28;20542;-70
2021/06/24 04:28:13;;;;;;;;;;;16.00;99.90;;;;;;5070967;28;19966;-70
2021/06/24 04:30:39;;;;;;;;;;;16.00;99.90;;;;;;5071557;28;20368;-70
2021/06/24 04:33:04;;;;;;;;;;;16.10;99.90;;;;;;5070984;28;19908;-70
2021/06/24 04:35:30;;;;;;;;;;;16.10;99.90;;;;;;5071049;28;19915;-69
2021/06/24 04:37:56;;;;;;;;;;;16.10;99.90;;;;;;5069014;28;19908;-70
2021/06/24 04:40:21;;;;;;;;;;;16.20;99.90;;;;;;5071149;28;19908;-70
2021/06/24 04:42:47;;;;;;;;;;;16.40;99.90;;;;;;5070713;28;19923;-70
2021/06/24 04:45:13;;;;;;;;;;;16.50;99.90;;;;;;5066927;28;19993;-70
2021/06/24 04:47:40;;;;;;;;;;;16.60;99.90;;;;;;5068633;28;19908;-69
2021/06/24 04:50:05;;;;;;;;;;;16.70;99.90;;;;;;5072497;28;19928;-70
2021/06/24 04:52:31;;;;;;;;;;;16.80;99.90;;;;;;5078059;28;20300;-70
2021/06/24 04:54:56;;;;;;;;;;;16.90;99.90;;;;;;5077590;28;20347;-70
2021/06/24 04:57:22;;;;;;;;;;;17.00;99.90;;;;;;5076643;28;19935;-70
2021/06/24 04:59:48;;;;;;;;;;;17.00;99.90;;;;;;5077415;28;19919;-70
2021/06/24 05:02:13;;;;;;;;;;;17.10;99.90;;;;;;5077571;28;19908;-70
2021/06/24 05:04:39;;;;;;;;;;;17.20;99.90;;;;;;5076606;28;19908;-70
2021/06/24 05:07:08;;;;;;;;;;;17.30;99.90;;;;;;5076693;28;19909;-70
2021/06/24 05:09:39;;;;;;;;;;;17.30;99.90;;;;;;5077464;28;19912;-70
2021/06/24 05:12:05;;;;;;;;;;;17.30;99.90;;;;;;5077548;28;19916;-70
2021/06/24 05:14:30;;;;;;;;;;;17.40;99.90;;;;;;5073121;28;20312;-70
2021/06/24 05:16:56;;;;;;;;;;;17.30;99.90;;;;;;5090650;28;19908;-70
2021/06/24 05:19:22;;;;;;;;;;;17.30;99.90;;;;;;5097532;28;19908;-70
2021/06/24 05:21:47;;;;;;;;;;;17.30;99.90;;;;;;5097643;28;20339;-70
2021/06/24 05:24:13;;;;;;;;;;;17.30;99.90;;;;;;5097937;28;19904;-70
2021/06/24 05:26:38;;;;;;;;;;;17.30;99.90;;;;;;5096966;28;19908;-70
2021/06/24 05:29:04;;;;;;;;;;;17.40;99.90;;;;;;5097265;28;19919;-70
2021/06/24 05:31:31;;;;;;;;;;;17.40;99.90;;;;;;5097590;28;19908;-70
2021/06/24 05:33:56;;;;;;;;;;;17.50;99.90;;;;;;5097678;28;20358;-70
2021/06/24 05:36:22;;;;;;;;;;;17.50;99.90;;;;;;5096723;28;19908;-70
2021/06/24 05:38:47;;;;;;;;;;;17.60;99.90;;;;;;5097674;28;19912;-70
2021/06/24 05:41:13;;;;;;;;;;;17.80;99.90;;;;;;5097602;28;19974;-70
2021/06/24 05:43:38;;;;;;;;;;;18.00;99.90;;;;;;5086290;28;20493;-69
2021/06/24 05:46:04;;;;;;;;;;;18.30;99.90;;;;;;5076332;28;19966;-70
2021/06/24 05:48:32;;;;;;;;;;;18.60;99.90;;;;;;5077186;28;19916;-70
2021/06/24 05:50:58;;;;;;;;;;;19.00;99.90;;;;;;5077361;28;19916;-70
2021/06/24 05:53:24;;;;;;;;;;;19.30;99.90;;;;;;5077329;28;19916;-70
2021/06/24 05:55:52;;;;;;;;;;;19.60;99.90;;;;;;5076718;28;19908;-70
2021/06/24 05:58:24;;;;;;;;;;;19.90;99.90;;;;;;5076960;28;20389;-70
2021/06/24 06:00:51;;;;;;;;;;;20.00;99.90;;;;;;5077288;28;20506;-70
2021/06/24 06:03:18;;;;;;;;;;;20.00;99.90;;;;;;5073208;28;20358;-70
2021/06/24 06:05:44;;;;;;;;;;;19.70;99.90;;;;;;5071653;28;19909;-70
2021/06/24 06:08:10;;;;;;;;;;;19.50;99.90;;;;;;5073012;28;19946;-70
2021/06/24 06:10:36;;;;;;;;;;;19.30;99.90;;;;;;5073880;28;19912;-70
2021/06/24 06:13:05;;;;;;;;;;;19.30;99.90;;;;;;5070944;28;19962;-70
2021/06/24 06:15:30;;;;;;;;;;;19.30;99.90;;;;;;5055125;28;20019;-70
2021/06/24 06:17:56;;;;;;;;;;;19.60;99.90;;;;;;5052041;28;20437;-70
2021/06/24 06:20:21;;;;;;;;;;;20.20;99.90;;;;;;5052836;28;19913;-69
2021/06/24 06:22:47;;;;;;;;;;;20.80;99.90;;;;;;5053074;28;19908;-71
2021/06/24 06:25:13;;;;;;;;;;;21.50;99.90;;;;;;5052903;28;19916;-71
2021/06/24 06:27:40;;;;;;;;;;;21.80;99.90;;;;;;5058602;28;19908;-71
2021/06/24 06:30:05;;;;;;;;;;;21.80;99.90;;;;;;5065727;28;20121;-70
2021/06/24 06:32:31;;;;;;;;;;;21.60;99.90;;;;;;5068682;28;20095;-70
2021/06/24 06:34:56;;;;;;;;;;;21.60;99.90;;;;;;5069349;28;19916;-71
2021/06/24 06:37:22;;;;;;;;;;;21.50;99.90;;;;;;5066131;28;19908;-71
2021/06/24 06:39:47;;;;;;;;;;;21.20;99.90;;;;;;5070647;28;19947;-70
2021/06/24 06:42:13;;;;;;;;;;;20.90;99.90;;;;;;5071003;28;19916;-71
2021/06/24 06:44:39;;;;;;;;;;;20.70;99.90;;;;;;5066161;28;20007;-71
2021/06/24 06:47:04;;;;;;;;;;;20.50;99.90;;;;;;5071742;28;20373;-70
2021/06/24 06:49:30;;;;;;;;;;;20.40;99.90;;;;;;5070368;28;19912;-70
2021/06/24 06:51:55;;;;;;;;;;;20.30;99.90;;;;;;5070733;28;19909;-71
2021/06/24 06:54:21;;;;;;;;;;;20.10;99.90;;;;;;5071550;28;19909;-70
2021/06/24 06:56:47;;;;;;;;;;;19.90;99.90;;;;;;5066934;28;20332;-70
2021/06/24 06:59:13;;;;;;;;;;;19.70;99.90;;;;;;5065494;28;20376;-70
2021/06/24 07:01:39;;;;;;;;;;;19.50;99.90;;;;;;5069210;28;20274;-70
2021/06/24 07:04:04;;;;;;;;;;;19.50;99.90;;;;;;5070325;28;19916;-70
2021/06/24 07:06:29;;;;;;;;;;;19.40;99.90;;;;;;5069869;28;19908;-71
2021/06/24 07:08:58;;;;;;;;;;;19.30;99.90;;;;;;5068237;28;19920;-70
2021/06/24 07:11:24;;;;;;;;;;;19.20;99.90;;;;;;5071529;28;19995;-70
2021/06/24 07:13:49;;;;;;;;;;;19.00;99.90;;;;;;5060495;28;20433;-70
2021/06/24 07:16:15;;;;;;;;;;;18.70;99.90;;;;;;5066077;28;19909;-70
2021/06/24 07:18:41;;;;;;;;;;;18.70;99.90;;;;;;5066530;28;19908;-70
2021/06/24 07:21:06;;;;;;;;;;;18.70;99.90;;;;;;5055929;28;19927;-71
2021/06/24 07:23:32;;;;;;;;;;;18.90;99.90;;;;;;5060435;28;20349;-71
2021/06/24 07:25:57;;;;;;;;;;;19.70;99.90;;;;;;5069620;28;19913;-71
2021/06/24 07:28:23;;;;;;;;;;;20.80;99.90;;;;;;5068307;28;19916;-70
2021/06/24 07:30:49;;;;;;;;;;;21.90;99.90;;;;;;5065495;28;19966;-71
2021/06/24 07:33:18;;;;;;;;;;;22.70;99.90;;;;;;5067127;28;20285;-70
2021/06/24 07:35:43;;;;;;;;;;;23.00;99.90;;;;;;5067858;28;20358;-71
2021/06/24 07:38:09;;;;;;;;;;;23.20;99.90;;;;;;5064482;28;19962;-70
2021/06/24 07:40:35;;;;;;;;;;;23.40;99.90;;;;;;5065277;28;19916;-71
2021/06/24 07:43:00;;;;;;;;;;;23.20;99.90;;;;;;5067693;28;19970;-71
2021/06/24 07:45:26;;;;;;;;;;;23.50;99.90;;;;;;5063462;28;19915;-71
2021/06/24 07:47:52;;;;;;;;;;;23.70;99.90;;;;;;5063259;28;19908;-71
2021/06/24 07:50:17;;;;;;;;;;;23.30;99.90;;;;;;5066217;28;19912;-71
2021/06/24 07:52:43;;;;;;;;;;;22.80;99.90;;;;;;5068620;28;19914;-71
2021/06/24 07:55:09;;;;;;;;;;;22.10;99.90;;;;;;5066358;28;19934;-71
2021/06/24 07:57:35;;;;;;;;;;;21.70;99.90;;;;;;5064647;28;19955;-71
2021/06/24 08:00:00;;;;;;;;;;;21.30;99.90;;;;;;5065421;28;19909;-70
2021/06/24 08:02:26;;;;;;;;;;;20.90;99.90;;;;;;5064334;28;19912;-70
2021/06/24 08:04:51;;;;;;;;;;;20.50;99.90;;;;;;5058239;28;19909;-71
2021/06/24 08:07:17;;;;;;;;;;;20.20;99.90;;;;;;5067206;28;20353;-71
2021/06/24 08:09:42;;;;;;;;;;;20.00;99.90;;;;;;5058367;28;20323;-71
2021/06/24 08:12:08;;;;;;;;;;;20.00;99.90;;;;;;5066213;28;19919;-70
2021/06/24 08:14:34;;;;;;;;;;;20.00;99.90;;;;;;5067452;28;20281;-71
2021/06/24 08:16:59;;;;;;;;;;;20.10;99.90;;;;;;5065624;28;20008;-71
2021/06/24 08:19:25;;;;;;;;;;;20.20;99.90;;;;;;5050887;28;19908;-71
2021/06/24 08:21:57;;;;;;;;;;;20.30;99.90;;;;;;5061541;28;19954;-70
2021/06/24 08:24:22;;;;;;;;;;;20.50;99.90;;;;;;5065089;28;19908;-70
2021/06/24 08:26:48;;;;;;;;;;;20.70;99.90;;;;;;5067871;28;19958;-71
2021/06/24 08:29:13;;;;;;;;;;;20.90;99.90;;;;;;5064755;28;20605;-71
2021/06/24 08:31:39;;;;;;;;;;;21.30;99.90;;;;;;5068861;28;19909;-71
2021/06/24 08:34:05;;;;;;;;;;;21.50;99.90;;;;;;5067398;28;20396;-71
2021/06/24 08:36:31;;;;;;;;;;;21.70;99.90;;;;;;5061474;28;19932;-71
2021/06/24 08:38:56;;;;;;;;;;;21.80;99.90;;;;;;5064721;28;20007;-71
2021/06/24 08:41:25;;;;;;;;;;;21.60;99.90;;;;;;5070003;28;20220;-71
2021/06/24 08:43:51;;;;;;;;;;;21.60;99.90;;;;;;5062406;28;20456;-71
2021/06/24 08:46:17;;;;;;;;;;;21.60;99.90;;;;;;5058752;28;19962;-71
2021/06/24 08:48:43;;;;;;;;;;;21.70;99.90;;;;;;5062962;28;19913;-71
2021/06/24 08:51:09;;;;;;;;;;;21.90;99.90;;;;;;5065542;28;20378;-71
2021/06/24 08:53:35;;;;;;;;;;;22.10;99.90;;;;;;5068982;28;20238;-71
2021/06/24 08:56:00;;;;;;;;;;;22.10;99.90;;;;;;5067386;28;20223;-70
2021/06/24 08:58:26;;;;;;;;;;;22.10;99.90;;;;;;5055032;28;19913;-71
2021/06/24 09:00:53;;;;;;;;;;;22.20;99.90;;;;;;5066971;28;20372;-71
2021/06/24 09:03:21;;;;;;;;;;;22.20;99.90;;;;;;5067582;28;19923;-71
2021/06/24 09:05:47;;;;;;;;;;;22.30;99.90;;;;;;5080664;28;19950;-71
2021/06/24 09:08:21;;;;;;;;;;;22.20;99.90;;;;;;5067804;28;19974;-71
2021/06/24 09:11:06;;;;;;;;;;;22.30;99.90;;;;;;5063171;28;19950;-71
2021/06/24 09:13:31;;;;;;;;;;;22.40;99.90;;;;;;5056098;28;19909;-71
2021/06/24 09:16:03;;;;;;;;;;;22.60;99.90;;;;;;5064912;28;19981;-71
2021/06/24 09:18:28;;;;;;;;;;;22.60;99.90;;;;;;5061108;28;19958;-71
2021/06/24 09:20:54;;;;;;;;;;;22.60;99.90;;;;;;5064126;28;20007;-71
2021/06/24 09:23:23;;;;;;;;;;;23.00;99.90;;;;;;5068705;28;19979;-71
2021/06/24 09:26:04;;;;;;;;;;;23.80;99.90;;;;;;5063041;28;19914;-71
2021/06/24 09:28:37;;;;;;;;;;;24.30;99.90;;;;;;5064051;28;20293;-71
2021/06/24 09:31:02;;;;;;;;;;;24.20;99.90;;;;;;5069652;28;19917;-70
2021/06/24 09:33:37;;;;;;;;;;;24.40;99.90;;;;;;5055757;28;19917;-70
2021/06/24 09:36:02;;;;;;;;;;;24.60;99.90;;;;;;5069166;28;19915;-71
2021/06/24 09:38:28;;;;;;;;;;;24.90;99.90;;;;;;5069119;28;19999;-71
2021/06/24 09:40:55;;;;;;;;;;;25.30;99.90;;;;;;5067694;28;19981;-71
2021/06/24 09:43:34;;;;;;;;;;;25.30;99.90;;;;;;5069766;28;19917;-70
2021/06/24 09:46:00;;;;;;;;;;;25.40;99.90;;;;;;5059799;28;19966;-71
2021/06/24 09:48:31;;;;;;;;;;;25.10;99.90;;;;;;5068273;28;19982;-71
2021/06/24 09:51:04;;;;;;;;;;;24.70;99.90;;;;;;5074111;28;19912;-71
2021/06/24 09:53:29;;;;;;;;;;;24.50;99.90;;;;;;5073890;28;20003;-71
2021/06/24 09:55:55;;;;;;;;;;;24.30;99.90;;;;;;5067664;28;19954;-71
2021/06/24 09:58:20;;;;;;;;;;;24.20;99.90;;;;;;5060478;28;19908;-71
2021/06/24 10:00:50;;;;;;;;;;;24.00;99.90;;;;;;5067417;28;20285;-71
2021/06/24 10:03:15;;;;;;;;;;;24.00;99.90;;;;;;5066645;28;19912;-72
2021/06/24 10:05:41;;;;;;;;;;;23.90;99.90;;;;;;5071442;28;20391;-72
2021/06/24 10:08:07;;;;;;;;;;;23.80;99.90;;;;;;5073226;28;20015;-71
2021/06/24 10:10:33;;;;;;;;;;;23.50;99.90;;;;;;5072234;28;19961;-72
2021/06/24 10:12:59;;;;;;;;;;;23.40;99.90;;;;;;5070502;28;19973;-72
2021/06/24 10:15:24;;;;;;;;;;;23.50;99.90;;;;;;5068464;28;19909;-72
2021/06/24 10:17:54;;;;;;;;;;;23.60;99.90;;;;;;5070920;28;19908;-70
2021/06/24 10:20:20;;;;;;;;;;;24.00;99.90;;;;;;5072034;28;19909;-70
2021/06/24 10:22:53;;;;;;;;;;;24.40;99.90;;;;;;5073886;28;20285;-70
2021/06/24 10:25:18;;;;;;;;;;;24.70;99.90;;;;;;5073361;28;19912;-70
2021/06/24 10:27:45;;;;;;;;;;;24.70;99.90;;;;;;5057293;28;19909;-70
2021/06/24 10:30:14;;;;;;;;;;;24.60;99.90;;;;;;5052747;28;19919;-70
2021/06/24 10:32:40;;;;;;;;;;;24.60;99.90;;;;;;5051942;28;19909;-71
2021/06/24 10:35:07;;;;;;;;;;;24.50;99.90;;;;;;5053534;28;19909;-71
2021/06/24 10:37:33;;;;;;;;;;;24.40;99.90;;;;;;5052542;28;19909;-71
2021/06/24 10:40:00;;;;;;;;;;;24.40;99.90;;;;;;5055052;28;19966;-71
2021/06/24 10:42:28;;;;;;;;;;;24.40;99.90;;;;;;5054183;28;19948;-71
2021/06/24 10:44:55;;;;;;;;;;;24.50;99.90;;;;;;5064865;28;19915;-72
2021/06/24 10:47:31;;;;;;;;;;;24.80;99.90;;;;;;5072184;28;20044;-71
2021/06/24 10:50:15;;;;;;;;;;;25.10;99.90;;;;;;5072331;28;19958;-71
2021/06/24 10:52:41;;;;;;;;;;;25.40;99.90;;;;;;5073391;28;19909;-71
2021/06/24 10:55:26;;;;;;;;;;;25.50;99.90;;;;;;5072556;28;19912;-71
2021/06/24 10:57:52;;;;;;;;;;;25.50;99.90;;;;;;5060603;28;19944;-70
2021/06/24 11:00:34;;;;;;;;;;;25.30;99.90;;;;;;5069293;28;19913;-71
2021/06/24 11:03:00;;;;;;;;;;;25.50;99.90;;;;;;5072721;28;19998;-72
2021/06/24 11:05:38;;;;;;;;;;;25.70;99.90;;;;;;5072310;28;19967;-72
2021/06/24 11:08:07;;;;;;;;;;;26.20;99.90;;;;;;5072391;28;19916;-69
2021/06/24 11:10:33;;;;;;;;;;;26.80;99.90;;;;;;5072514;28;19909;-71
2021/06/24 11:13:00;;;;;;;;;;;27.10;99.90;;;;;;5071031;28;19919;-71
2021/06/24 11:15:41;;;;;;;;;;;27.60;99.90;;;;;;5069922;28;19962;-71
2021/06/24 11:18:07;;;;;;;;;;;27.90;99.90;;;;;;5072550;28;20002;-71
2021/06/24 11:20:42;;;;;;;;;;;27.60;99.50;;;;;;5072403;28;19959;-71
2021/06/24 11:23:26;;;;;;;;;;;27.70;98.60;;;;;;5072251;28;19934;-71
2021/06/24 11:26:05;;;;;;;;;;;27.70;99.90;;;;;;5071273;28;19957;-71
2021/06/24 11:31:08;;;;;;;;;;;27.60;96.90;;;;;;5072007;28;19916;-71
2021/06/24 11:33:38;;;;;;;;;;;27.60;99.40;;;;;;5072300;28;20040;-71
2021/06/24 11:36:11;;;;;;;;;;;27.20;98.60;;;;;;5071244;28;20456;-71
2021/06/24 11:38:43;;;;;;;;;;;26.60;97.60;;;;;;5071354;28;20390;-70
2021/06/24 11:41:09;;;;;;;;;;;26.20;98.60;;;;;;5069641;28;19909;-70
2021/06/24 11:43:35;;;;;;;;;;;25.90;99.50;;;;;;5067934;28;19931;-71
2021/06/24 11:46:01;;;;;;;;;;;25.60;99.90;;;;;;5069176;28;20259;-71
2021/06/24 11:48:26;;;;;;;;;;;25.30;99.90;;;;;;5071255;28;20130;-71
2021/06/24 12:04:41;;;;;;;;;;;26.70;96.50;;;;;;5071324;28;19919;-71
2021/06/24 12:07:08;;;;;;;;;;;26.80;99.30;;;;;;5070396;28;20289;-71
2021/06/24 12:09:39;;;;;;;;;;;26.70;98.90;;;;;;5070645;28;19912;-71
2021/06/24 12:12:06;;;;;;;;;;;26.80;97.90;;;;;;5070939;28;19951;-72
2021/06/24 12:14:33;;;;;;;;;;;26.70;94.80;;;;;;5066759;28;19978;-72
2021/06/24 12:17:12;;;;;;;;;;;26.70;95.60;;;;;;5070248;28;20327;-72
2021/06/24 12:19:40;;;;;;;;;;;26.60;96.00;;;;;;5070925;28;20124;-72
2021/06/24 12:22:05;;;;;;;;;;;26.70;97.50;;;;;;5071104;28;19915;-70
2021/06/24 12:24:32;;;;;;;;;;;27.30;95.50;;;;;;5071287;28;20273;-71
2021/06/24 12:27:12;;;;;;;;;;;27.50;94.70;;;;;;5070179;28;19958;-71
2021/06/24 12:29:41;;;;;;;;;;;27.60;93.70;;;;;;5070443;28;19916;-71
2021/06/24 12:32:06;;;;;;;;;;;27.60;93.00;;;;;;5070969;28;20362;-71
2021/06/24 12:34:32;;;;;;;;;;;27.50;92.90;;;;;;5070945;28;19931;-72
2021/06/24 12:36:57;;;;;;;;;;;27.50;92.00;;;;;;5069754;28;19917;-72
2021/06/24 12:39:23;;;;;;;;;;;27.40;92.10;;;;;;5070438;28;19912;-72
2021/06/24 12:41:49;;;;;;;;;;;27.40;93.00;;;;;;5070788;28;19938;-72
2021/06/24 12:44:14;;;;;;;;;;;27.50;93.80;;;;;;5066705;28;19913;-72
2021/06/24 12:46:40;;;;;;;;;;;27.40;93.20;;;;;;5061659;28;19922;-72
2021/06/24 12:49:16;;;;;;;;;;;27.50;92.70;;;;;;5069753;28;19919;-73
2021/06/24 12:51:41;;;;;;;;;;;27.60;91.70;;;;;;5070418;28;19908;-72
2021/06/24 12:54:14;;;;;;;;;;;27.70;91.20;;;;;;5070645;28;19908;-72
2021/06/24 12:56:39;;;;;;;;;;;28.00;94.50;;;;;;5069922;28;19953;-72
2021/06/24 12:59:09;;;;;;;;;;;28.40;92.40;;;;;;5066002;28;19908;-72
2021/06/24 13:01:35;;;;;;;;;;;28.60;89.50;;;;;;5070540;28;19965;-72
2021/06/24 13:04:08;;;;;;;;;;;28.80;89.50;;;;;;5070448;28;20449;-72
2021/06/24 13:06:40;;;;;;;;;;;28.80;88.60;;;;;;5068603;28;19951;-72
2021/06/24 13:09:07;;;;;;;;;;;29.00;87.90;;;;;;5068654;28;20315;-72
2021/06/24 13:11:32;;;;;;;;;;;29.20;90.60;;;;;;5072141;28;19909;-72
2021/06/24 13:14:04;;;;;;;;;;;29.50;91.70;;;;;;5070548;28;19923;-72
2021/06/24 13:16:34;;;;;;;;;;;29.40;85.30;;;;;;5073038;28;19961;-72
2021/06/24 13:19:18;;;;;;;;;;;29.00;86.60;;;;;;5073987;28;19908;-72
2021/06/24 13:21:50;;;;;;;;;;;28.30;89.20;;;;;;5074679;28;20417;-72
2021/06/24 13:24:16;;;;;;;;;;;27.30;90.60;;;;;;5074393;28;19924;-72
2021/06/24 13:26:42;;;;;;;;;;;26.40;91.00;;;;;;5073463;28;19909;-72
2021/06/24 13:29:15;;;;;;;;;;;24.90;90.90;;;;;;5073547;28;20128;-72
2021/06/24 13:31:43;;;;;;;;;;;23.70;91.80;;;;;;5074525;28;20401;-72
2021/06/24 13:34:10;;;;;;;;;;;22.40;92.80;;;;;;5074341;28;20239;-72
2021/06/24 13:36:36;;;;;;;;;;;21.40;94.90;;;;;;5073464;28;20266;-72
2021/06/24 13:39:04;;;;;;;;;;;20.60;96.40;;;;;;5073760;28;19954;-72
2021/06/24 13:41:30;;;;;;;;;;;20.10;97.40;;;;;;5072352;28;19908;-72
2021/06/24 13:44:02;;;;;;;;;;;19.80;98.90;;;;;;5070136;28;19921;-72
2021/06/24 13:46:27;;;;;;;;;;;19.60;99.60;;;;;;5071386;28;20250;-72
2021/06/24 13:48:52;;;;;;;;;;;19.80;99.90;;;;;;5073553;28;19927;-72
2021/06/24 13:51:18;;;;;;;;;;;19.90;99.90;;;;;;5073678;28;19917;-72
2021/06/24 13:53:44;;;;;;;;;;;20.10;99.90;;;;;;5073877;28;19912;-71
2021/06/24 13:56:09;;;;;;;;;;;20.30;99.90;;;;;;5072866;28;20364;-71
2021/06/24 13:58:35;;;;;;;;;;;20.50;99.90;;;;;;5062615;28;20404;-72
2021/06/24 14:01:01;;;;;;;;;;;20.70;99.90;;;;;;5071944;28;19942;-71
2021/06/24 14:03:27;;;;;;;;;;;20.90;99.90;;;;;;5073266;28;19927;-72
2021/06/24 14:05:52;;;;;;;;;;;21.10;99.90;;;;;;5072797;28;19920;-72
2021/06/24 14:08:18;;;;;;;;;;;21.20;99.90;;;;;;5073052;28;19936;-72
2021/06/24 14:10:44;;;;;;;;;;;21.40;99.90;;;;;;5073254;28;20011;-72
2021/06/24 14:13:10;;;;;;;;;;;21.50;99.90;;;;;;5070509;28;19909;-72
2021/06/24 14:15:35;;;;;;;;;;;21.70;99.90;;;;;;5071683;28;20358;-71
2021/06/24 14:18:01;;;;;;;;;;;21.80;99.90;;;;;;5072989;28;19909;-70
2021/06/24 14:20:27;;;;;;;;;;;22.00;99.90;;;;;;5071812;28;19967;-71
2021/06/24 14:22:53;;;;;;;;;;;22.10;99.90;;;;;;5072625;28;19948;-71
2021/06/24 14:25:18;;;;;;;;;;;22.30;99.90;;;;;;5072804;28;20361;-70
2021/06/24 14:27:44;;;;;;;;;;;22.50;99.90;;;;;;5072330;28;19916;-71
2021/06/24 14:30:10;;;;;;;;;;;22.70;99.90;;;;;;5072718;28;19913;-71